Time;durP1;ratioP1;P1;durP2;ratioP2;P2;SDS_P1;SDS_P2;PMS_P1;PMS_P2;Temp;Humidity;BMP_temperature;BMP_pressure;BME280_temperature;BME280_humidity;BME280_pressure;Samples;Min_cycle;Max_cycle;Signal;HPM_P1;HPM_P2
2022/03/10 00:00:27;;;;;;;32.45;16.98;;;;;;;3.85;45.84;101459.19;4192009;28;20457;-60
2022/03/10 00:02:30;;;;;;;23.75;15.80;;;;;;;3.89;46.25;101461.16;4183398;28;20029;-60
2022/03/10 00:04:33;;;;;;;22.13;15.00;;;;;;;4.02;47.23;101461.06;4188192;28;20095;-60
2022/03/10 00:06:36;;;;;;;27.92;17.33;;;;;;;4.12;46.68;101466.75;4189710;28;20081;-60
2022/03/10 00:08:38;;;;;;;26.15;16.83;;;;;;;4.15;46.64;101460.06;4204184;28;20032;-60
2022/03/10 00:10:41;;;;;;;28.95;17.58;;;;;;;4.22;46.83;101466.47;4205020;28;20555;-60
2022/03/10 00:12:48;;;;;;;22.70;14.55;;;;;;;4.30;46.12;101469.44;4194833;28;20044;-60
2022/03/10 00:14:51;;;;;;;28.40;16.02;;;;;;;4.19;45.97;101467.16;4194454;28;20505;-60
2022/03/10 00:16:55;;;;;;;24.13;14.93;;;;;;;4.20;45.77;101468.03;4195474;28;20056;-60
2022/03/10 00:18:58;;;;;;;20.45;13.80;;;;;;;4.09;45.60;101463.97;4181351;28;20546;-60
2022/03/10 00:21:01;;;;;;;25.33;15.07;;;;;;;4.11;44.97;101468.41;4184451;28;20486;-60
2022/03/10 00:23:03;;;;;;;24.38;14.73;;;;;;;4.16;46.05;101472.16;4204513;28;20035;-60
2022/03/10 00:25:07;;;;;;;24.30;15.32;;;;;;;4.20;45.65;101468.03;4181319;28;20459;-60
2022/03/10 00:27:09;;;;;;;24.70;15.95;;;;;;;4.25;46.30;101464.06;4191199;28;20062;-60
2022/03/10 00:29:12;;;;;;;26.33;16.30;;;;;;;4.26;46.51;101465.81;4178564;28;20041;-60
2022/03/10 00:31:15;;;;;;;27.52;15.60;;;;;;;4.25;46.18;101466.63;4210978;28;20032;-60
2022/03/10 00:33:19;;;;;;;25.77;16.17;;;;;;;4.22;46.24;101476.75;4187359;28;20471;-60
2022/03/10 00:35:23;;;;;;;25.80;16.10;;;;;;;4.18;46.04;101470.53;4190378;28;20040;-59
2022/03/10 00:37:31;;;;;;;24.55;15.82;;;;;;;4.17;46.34;101478.16;4195544;28;20051;-60
2022/03/10 00:39:34;;;;;;;25.88;15.98;;;;;;;4.14;46.18;101478.00;4203394;28;20071;-60
2022/03/10 00:41:37;;;;;;;22.90;15.75;;;;;;;4.15;45.89;101480.66;4180985;28;20099;-60
2022/03/10 00:43:40;;;;;;;22.33;15.50;;;;;;;4.03;45.14;101479.97;4179987;28;20040;-60
2022/03/10 00:45:42;;;;;;;22.80;15.20;;;;;;;4.03;45.37;101477.41;4188375;28;20567;-59
2022/03/10 00:47:46;;;;;;;22.30;14.57;;;;;;;4.05;45.65;101473.22;4210560;28;20070;-60
2022/03/10 00:49:50;;;;;;;26.13;15.98;;;;;;;3.96;45.43;101483.00;4214056;28;20032;-60
2022/03/10 00:51:52;;;;;;;26.73;16.13;;;;;;;3.86;45.87;101484.13;4199759;28;20044;-60
2022/03/10 00:53:55;;;;;;;27.48;16.70;;;;;;;3.87;46.09;101485.91;4212847;28;20047;-61
2022/03/10 00:55:58;;;;;;;23.02;15.45;;;;;;;3.86;45.80;101485.84;4206671;28;20052;-61
2022/03/10 00:58:01;;;;;;;29.13;17.13;;;;;;;3.87;46.15;101488.50;4191218;28;20032;-60
2022/03/10 01:00:06;;;;;;;29.80;17.08;;;;;;;3.93;46.17;101493.06;4206562;28;20044;-60
2022/03/10 01:02:08;;;;;;;29.33;16.35;;;;;;;3.94;45.85;101475.19;4184071;28;20083;-60
2022/03/10 01:04:12;;;;;;;27.65;15.85;;;;;;;3.92;46.26;101479.34;4186892;28;20548;-60
2022/03/10 01:06:16;;;;;;;25.42;15.63;;;;;;;3.92;46.11;101481.91;4182236;28;20041;-60
2022/03/10 01:08:19;;;;;;;24.33;16.52;;;;;;;3.94;45.98;101484.56;4196959;28;20600;-60
2022/03/10 01:10:22;;;;;;;23.48;15.25;;;;;;;3.92;45.88;101484.47;4181996;28;20434;-60
2022/03/10 01:12:25;;;;;;;24.08;15.13;;;;;;;3.83;45.38;101482.25;4195365;28;20071;-60
2022/03/10 01:14:29;;;;;;;29.43;17.00;;;;;;;3.82;46.22;101479.59;4199216;28;20031;-60
2022/03/10 01:16:31;;;;;;;27.33;17.05;;;;;;;3.84;46.13;101481.47;4203465;28;20060;-60
2022/03/10 01:18:35;;;;;;;29.17;17.85;;;;;;;3.87;45.79;101482.44;4196791;28;20119;-60
2022/03/10 01:20:37;;;;;;;22.65;14.30;;;;;;;3.90;46.61;101480.03;4196809;28;20040;-60
2022/03/10 01:22:41;;;;;;;26.00;15.93;;;;;;;3.90;46.24;101473.22;4179576;28;20064;-60
2022/03/10 01:24:44;;;;;;;26.27;16.40;;;;;;;3.84;45.86;101480.56;4180473;28;20041;-60
2022/03/10 01:26:47;;;;;;;26.02;15.38;;;;;;;3.87;46.28;101477.28;4199239;28;20047;-60
2022/03/10 01:28:50;;;;;;;25.50;16.98;;;;;;;3.84;46.47;101478.91;4194041;28;20045;-60
2022/03/10 01:30:52;;;;;;;23.50;16.48;;;;;;;3.84;46.98;101478.91;4180467;28;20049;-59
2022/03/10 01:32:55;;;;;;;23.60;15.40;;;;;;;3.83;46.56;101474.53;4194117;28;20044;-60
2022/03/10 01:34:58;;;;;;;25.50;16.40;;;;;;;3.81;46.52;101473.59;4175376;28;20538;-60
2022/03/10 01:37:01;;;;;;;24.40;15.65;;;;;;;3.78;46.20;101469.94;4196289;28;20106;-60
2022/03/10 01:39:05;;;;;;;28.08;17.42;;;;;;;3.75;46.30;101470.66;4178080;28;20095;-61
2022/03/10 01:41:09;;;;;;;26.73;16.52;;;;;;;3.69;46.36;101471.97;4206310;28;20040;-60
2022/03/10 01:43:12;;;;;;;23.70;15.13;;;;;;;3.64;46.71;101475.16;4197683;28;20044;-60
2022/03/10 01:45:15;;;;;;;20.42;14.43;;;;;;;3.61;46.65;101466.41;4196884;28;20040;-61
2022/03/10 01:47:18;;;;;;;25.15;15.57;;;;;;;3.55;46.34;101478.88;4195197;28;20128;-60
2022/03/10 01:49:21;;;;;;;26.90;16.83;;;;;;;3.49;46.71;101477.72;4196847;28;20123;-60
2022/03/10 01:51:27;;;;;;;23.45;14.80;;;;;;;3.49;47.27;101472.59;4180560;28;20517;-60
2022/03/10 01:53:30;;;;;;;29.58;16.60;;;;;;;3.41;47.18;101473.81;4181552;28;20612;-60
2022/03/10 01:55:34;;;;;;;24.42;15.93;;;;;;;3.45;47.33;101477.47;4210826;28;20093;-60
2022/03/10 01:57:37;;;;;;;28.17;16.20;;;;;;;3.47;47.52;101475.84;4188656;28;20049;-60
2022/03/10 01:59:40;;;;;;;22.50;15.90;;;;;;;3.48;47.57;101475.94;4169852;28;20303;-60
2022/03/10 02:01:43;;;;;;;26.38;15.98;;;;;;;3.47;47.35;101474.16;4196376;28;20051;-59
2022/03/10 02:03:47;;;;;;;28.55;17.85;;;;;;;3.46;46.93;101479.22;4180613;28;20033;-60
2022/03/10 02:05:50;;;;;;;25.15;16.05;;;;;;;3.45;47.24;101472.31;4198640;28;20099;-60
2022/03/10 02:10:19;;;;;;;25.35;16.77;;;;;;;3.35;46.79;101480.28;4203249;28;20128;-60
2022/03/10 02:12:23;;;;;;;25.55;16.10;;;;;;;3.29;46.58;101479.09;4203341;28;20603;-60
2022/03/10 02:19:08;;;;;;;25.42;16.00;;;;;;;3.12;48.22;101478.06;4186546;28;20111;-60
2022/03/10 02:21:11;;;;;;;30.23;16.67;;;;;;;3.11;47.74;101476.31;4187683;28;20084;-60
2022/03/10 02:23:15;;;;;;;28.30;17.27;;;;;;;3.14;48.66;101476.50;4206959;28;20032;-59
2022/03/10 02:25:21;;;;;;;23.20;16.08;;;;;;;3.11;48.58;101471.19;4207524;28;20052;-60
2022/03/10 02:27:25;;;;;;;24.38;15.77;;;;;;;3.08;49.23;101470.09;4197778;28;20032;-60
2022/03/10 02:29:29;;;;;;;23.90;16.42;;;;;;;3.00;49.05;101474.75;4183989;28;20041;-60
2022/03/10 02:31:32;;;;;;;27.75;18.70;;;;;;;2.99;49.18;101465.28;4186362;28;20036;-60
2022/03/10 02:33:34;;;;;;;31.02;16.85;;;;;;;3.06;49.46;101472.56;4180827;28;20067;-60
2022/03/10 02:35:37;;;;;;;27.98;16.70;;;;;;;2.99;49.38;101479.81;4185197;28;20507;-60
2022/03/10 02:37:40;;;;;;;27.40;15.60;;;;;;;2.92;50.63;101478.53;4204967;28;20048;-60
2022/03/10 02:39:45;;;;;;;24.83;16.20;;;;;;;2.88;51.57;101474.91;4190255;28;20045;-60
2022/03/10 02:41:48;;;;;;;25.92;16.65;;;;;;;2.90;50.93;101481.00;4185395;28;20095;-60
2022/03/10 02:43:50;;;;;;;27.20;17.30;;;;;;;2.93;51.63;101480.31;4195831;28;20472;-60
2022/03/10 02:45:53;;;;;;;27.00;18.02;;;;;;;3.00;51.37;101477.34;4174824;28;20477;-59
2022/03/10 02:47:57;;;;;;;27.48;16.83;;;;;;;3.06;50.99;101479.41;4205147;28;20102;-60
2022/03/10 02:50:03;;;;;;;25.80;16.88;;;;;;;3.12;51.03;101477.19;4194527;28;20047;-60
2022/03/10 02:52:06;;;;;;;21.98;15.30;;;;;;;3.17;50.90;101482.59;4215171;28;20032;-60
2022/03/10 02:54:17;;;;;;;24.10;16.75;;;;;;;3.21;50.91;101487.13;4198037;28;20041;-60
2022/03/10 02:56:26;;;;;;;27.73;17.88;;;;;;;3.19;50.67;101489.63;4185754;28;20041;-60
2022/03/10 02:58:29;;;;;;;26.65;18.25;;;;;;;3.24;51.27;101493.38;4196248;28;20048;-60
2022/03/10 03:00:31;;;;;;;27.52;17.00;;;;;;;3.28;51.04;101494.44;4190722;28;20103;-60
2022/03/10 03:02:34;;;;;;;25.35;17.52;;;;;;;3.31;51.16;101500.66;4189696;28;20467;-59
2022/03/10 03:04:37;;;;;;;29.48;17.63;;;;;;;3.36;50.88;101493.22;4190549;28;20526;-60
2022/03/10 03:06:40;;;;;;;25.95;16.73;;;;;;;3.28;51.83;101492.72;4190285;28;20048;-60
2022/03/10 03:08:43;;;;;;;28.00;18.17;;;;;;;3.16;51.58;101494.56;4199368;28;20573;-60
2022/03/10 03:10:46;;;;;;;27.85;18.05;;;;;;;3.19;51.81;101489.63;4182384;28;20514;-60
2022/03/10 03:12:52;;;;;;;27.95;17.17;;;;;;;3.16;52.31;101489.44;4189560;28;20071;-60
2022/03/10 03:14:55;;;;;;;35.42;20.23;;;;;;;3.08;52.00;101496.69;4182276;28;20053;-60
2022/03/10 03:16:58;;;;;;;29.55;18.38;;;;;;;3.06;52.39;101497.38;4187687;28;20050;-60
2022/03/10 03:19:00;;;;;;;27.80;16.25;;;;;;;2.97;52.54;101503.72;4190641;28;20485;-60
2022/03/10 03:21:04;;;;;;;26.75;16.58;;;;;;;2.97;51.93;101503.72;4201303;28;20562;-60
2022/03/10 03:23:07;;;;;;;25.67;16.58;;;;;;;2.99;52.49;101506.38;4203265;28;20497;-60
2022/03/10 03:25:10;;;;;;;25.90;16.48;;;;;;;3.02;51.88;101506.56;4185055;28;20041;-59
2022/03/10 03:27:19;;;;;;;28.38;18.17;;;;;;;3.00;52.63;101507.28;4180943;28;20045;-59
2022/03/10 03:29:25;;;;;;;26.63;18.75;;;;;;;2.97;52.40;101503.72;4185251;28;20091;-60
2022/03/10 03:31:27;;;;;;;28.95;17.50;;;;;;;2.88;53.02;101502.28;4182220;28;20045;-60
2022/03/10 03:33:30;;;;;;;29.40;17.45;;;;;;;2.84;52.65;101500.31;4183179;28;20068;-60
2022/03/10 03:35:33;;;;;;;32.88;17.77;;;;;;;2.85;52.35;101502.06;4190921;28;20048;-60
2022/03/10 03:37:36;;;;;;;31.10;17.92;;;;;;;2.88;52.40;101507.41;4206440;28;20049;-60
2022/03/10 03:39:41;;;;;;;29.17;18.90;;;;;;;2.90;52.74;101505.81;4198495;28;20044;-60
2022/03/10 03:41:43;;;;;;;26.05;16.65;;;;;;;2.94;52.61;101515.50;4188476;28;20049;-60
2022/03/10 03:43:46;;;;;;;24.05;16.77;;;;;;;2.95;52.62;101515.59;4189333;28;20037;-60
2022/03/10 03:45:50;;;;;;;27.25;18.70;;;;;;;3.01;52.85;101512.50;4196689;28;20044;-60
2022/03/10 03:47:54;;;;;;;33.58;18.48;;;;;;;3.02;52.19;101516.84;4198191;28;20044;-59
2022/03/10 03:49:56;;;;;;;28.17;18.77;;;;;;;3.11;52.53;101521.66;4189656;28;20044;-60
2022/03/10 03:51:59;;;;;;;29.67;18.98;;;;;;;3.13;52.34;101518.38;4193044;28;20044;-60
2022/03/10 03:54:02;;;;;;;28.80;19.75;;;;;;;3.16;51.99;101514.25;4201918;28;20051;-59
2022/03/10 03:56:05;;;;;;;29.58;18.08;;;;;;;3.16;51.94;101515.13;4198231;28;20033;-60
2022/03/10 03:58:08;;;;;;;29.02;17.33;;;;;;;3.13;52.00;101515.81;4193500;28;20456;-59
2022/03/10 04:00:11;;;;;;;29.73;18.60;;;;;;;3.15;52.33;101515.91;4201851;28;20075;-59
2022/03/10 04:02:16;;;;;;;30.52;18.38;;;;;;;3.11;52.11;101522.56;4196442;28;20395;-60
2022/03/10 04:04:21;;;;;;;27.30;18.65;;;;;;;3.07;52.16;101515.47;4191154;28;20045;-59
2022/03/10 04:06:24;;;;;;;31.83;19.38;;;;;;;3.02;51.62;101518.53;4204217;28;20058;-59
2022/03/10 04:08:27;;;;;;;28.10;18.10;;;;;;;3.02;52.24;101521.97;4182303;28;20450;-59
2022/03/10 04:10:29;;;;;;;29.25;17.58;;;;;;;2.98;52.65;101517.47;4194310;28;20041;-60
2022/03/10 04:12:32;;;;;;;24.95;17.30;;;;;;;2.96;52.41;101508.75;4197103;28;20099;-60
2022/03/10 04:14:35;;;;;;;31.85;19.60;;;;;;;2.95;52.70;101515.59;4185571;28;20053;-60
2022/03/10 04:16:38;;;;;;;29.70;18.98;;;;;;;2.93;52.57;101506.00;4191851;28;20474;-60
2022/03/10 04:18:42;;;;;;;29.65;19.30;;;;;;;2.84;53.32;101508.00;4201843;28;20600;-59
2022/03/10 04:20:46;;;;;;;27.77;18.27;;;;;;;2.76;53.76;101510.97;4200912;28;20386;-60
2022/03/10 04:22:49;;;;;;;29.23;17.40;;;;;;;2.74;53.95;101507.41;4162782;28;20053;-60
2022/03/10 04:24:54;;;;;;;33.53;19.90;;;;;;;2.74;53.80;101504.84;4197814;28;20039;-60
2022/03/10 04:26:57;;;;;;;27.42;18.35;;;;;;;2.72;54.59;101501.31;4197551;28;20094;-60
2022/03/10 04:28:59;;;;;;;26.15;18.10;;;;;;;2.59;54.90;101506.47;4196040;28;20090;-60
2022/03/10 04:31:02;;;;;;;28.92;19.42;;;;;;;2.60;54.95;101501.44;4192708;28;20040;-60
2022/03/10 04:33:05;;;;;;;25.65;17.00;;;;;;;2.57;55.50;101501.22;4200309;28;20043;-60
2022/03/10 04:35:10;;;;;;;31.65;17.48;;;;;;;2.56;55.87;101504.59;4205787;28;20036;-60
2022/03/10 04:37:12;;;;;;;29.90;17.70;;;;;;;2.44;56.22;101499.56;4193594;28;20041;-60
2022/03/10 04:39:15;;;;;;;27.02;18.42;;;;;;;2.49;56.37;101504.09;4182174;28;20410;-60
2022/03/10 04:41:18;;;;;;;27.02;17.90;;;;;;;2.42;57.12;101506.28;4181007;28;20041;-60
2022/03/10 04:43:20;;;;;;;26.90;17.08;;;;;;;2.39;56.94;101505.19;4192501;28;20052;-60
2022/03/10 04:45:23;;;;;;;30.75;19.00;;;;;;;2.31;57.09;101507.28;4193962;28;20052;-60
2022/03/10 04:47:26;;;;;;;27.77;17.95;;;;;;;2.28;57.18;101509.63;4199617;28;20513;-59
2022/03/10 04:49:29;;;;;;;29.98;18.25;;;;;;;2.20;57.61;101504.00;4182336;28;20045;-60
2022/03/10 04:51:33;;;;;;;29.98;17.60;;;;;;;2.20;57.23;101508.25;4186872;28;20044;-59
2022/03/10 04:53:35;;;;;;;26.43;17.00;;;;;;;2.22;56.92;101510.13;4196080;28;20051;-60
2022/03/10 04:55:38;;;;;;;30.75;18.45;;;;;;;2.21;56.95;101515.16;4197432;28;20048;-60
2022/03/10 04:57:41;;;;;;;28.40;19.02;;;;;;;2.18;56.83;101520.97;4179264;28;20045;-60
2022/03/10 04:59:44;;;;;;;31.67;19.95;;;;;;;2.25;57.06;101528.28;4182672;28;20043;-60
2022/03/10 05:01:47;;;;;;;26.42;18.35;;;;;;;2.27;57.00;101526.69;4196877;28;20057;-60
2022/03/10 05:03:50;;;;;;;31.30;17.73;;;;;;;2.30;56.47;101522.56;4197588;28;20037;-60
2022/03/10 05:05:54;;;;;;;26.20;16.83;;;;;;;2.36;55.62;101518.69;4184819;28;20469;-60
2022/03/10 05:07:59;;;;;;;29.00;18.55;;;;;;;2.36;55.49;101523.84;4198976;28;20045;-60
2022/03/10 05:10:01;;;;;;;33.40;20.07;;;;;;;2.36;55.71;101523.84;4200009;28;20062;-60
2022/03/10 05:12:05;;;;;;;28.20;19.02;;;;;;;2.33;55.60;101525.31;4195487;28;20170;-60
2022/03/10 05:14:08;;;;;;;23.73;17.90;;;;;;;2.35;55.66;101514.38;4188209;28;20033;-60
2022/03/10 05:16:11;;;;;;;31.95;19.02;;;;;;;2.38;55.34;101516.22;4209795;28;20317;-60
2022/03/10 05:18:14;;;;;;;30.00;18.60;;;;;;;2.38;54.92;101512.00;4203182;28;20047;-60
2022/03/10 05:20:17;;;;;;;31.95;18.13;;;;;;;2.32;54.71;101514.16;4197083;28;20109;-61
2022/03/10 05:22:20;;;;;;;31.95;17.40;;;;;;;2.22;54.65;101516.91;4195492;28;20403;-60
2022/03/10 05:24:24;;;;;;;23.23;15.70;;;;;;;2.10;54.46;101519.56;4192591;28;20048;-60
2022/03/10 05:26:27;;;;;;;31.67;16.63;;;;;;;1.83;54.96;101521.22;4190884;28;20482;-60
2022/03/10 05:28:30;;;;;;;28.58;16.08;;;;;;;1.71;55.33;101517.03;4199901;28;20521;-59
2022/03/10 05:30:33;;;;;;;28.08;17.73;;;;;;;1.67;55.31;101520.19;4185108;28;20053;-60
2022/03/10 05:32:35;;;;;;;26.13;16.80;;;;;;;1.71;54.54;101524.75;4199452;28;20513;-60
2022/03/10 05:34:38;;;;;;;30.80;17.83;;;;;;;1.66;54.39;101527.78;4180012;28;20473;-60
2022/03/10 05:36:41;;;;;;;27.08;17.48;;;;;;;1.70;54.45;101528.06;4192467;28;20040;-60
2022/03/10 05:38:44;;;;;;;26.77;16.83;;;;;;;1.77;53.98;101523.34;4189635;28;20556;-60
2022/03/10 05:40:48;;;;;;;24.40;16.90;;;;;;;1.70;54.00;101520.38;4193529;28;20044;-59
2022/03/10 05:42:54;;;;;;;28.80;17.92;;;;;;;1.60;54.50;101532.50;4176701;28;20041;-60
2022/03/10 05:44:57;;;;;;;28.42;17.77;;;;;;;1.62;54.43;101531.81;4189420;28;20041;-60
2022/03/10 05:47:00;;;;;;;30.77;18.27;;;;;;;1.65;54.45;101542.28;4173129;28;20103;-60
2022/03/10 05:49:03;;;;;;;29.00;17.08;;;;;;;1.67;54.01;101538.13;4189025;28;20110;-60
2022/03/10 05:51:05;;;;;;;30.70;18.58;;;;;;;1.66;54.17;101538.91;4171821;28;20067;-60
2022/03/10 05:53:08;;;;;;;25.90;18.27;;;;;;;1.74;54.58;101544.56;4203998;28;20563;-60
2022/03/10 05:55:11;;;;;;;27.13;16.88;;;;;;;1.80;54.17;101549.22;4181693;28;20075;-60
2022/03/10 05:57:15;;;;;;;27.92;18.15;;;;;;;1.82;53.64;101542.50;4203438;28;20044;-60
2022/03/10 05:59:19;;;;;;;28.67;19.43;;;;;;;1.83;53.74;101546.88;4191074;28;20106;-60
2022/03/10 06:01:22;;;;;;;27.63;16.85;;;;;;;1.63;54.30;101548.94;4185231;28;20136;-60
2022/03/10 06:03:25;;;;;;;27.63;18.13;;;;;;;1.49;54.06;101542.91;4199248;28;20040;-60
2022/03/10 06:05:27;;;;;;;28.42;17.70;;;;;;;1.41;54.17;101554.28;4198630;28;20044;-59
2022/03/10 06:07:31;;;;;;;28.35;16.63;;;;;;;1.46;54.17;101550.38;4193310;28;20502;-60
2022/03/10 06:09:33;;;;;;;29.40;17.30;;;;;;;1.40;53.98;101547.38;4189642;28;20048;-61
2022/03/10 06:11:37;;;;;;;26.65;15.65;;;;;;;1.43;54.45;101557.88;4199007;28;20040;-60
2022/03/10 06:13:41;;;;;;;27.10;17.17;;;;;;;1.48;53.99;101559.06;4181615;28;20103;-60
2022/03/10 06:15:44;;;;;;;30.38;17.75;;;;;;;1.56;53.97;101564.69;4182790;28;20124;-60
2022/03/10 06:17:47;;;;;;;29.75;18.52;;;;;;;1.66;53.84;101564.53;4182585;28;20413;-60
2022/03/10 06:19:50;;;;;;;27.50;17.58;;;;;;;1.75;53.63;101574.53;4198653;28;20064;-60
2022/03/10 06:21:53;;;;;;;31.85;18.48;;;;;;;1.83;52.78;101564.81;4216414;28;20078;-60
2022/03/10 06:23:56;;;;;;;30.67;18.45;;;;;;;1.90;52.84;101564.44;4216156;28;20047;-60
2022/03/10 06:25:58;;;;;;;28.20;17.85;;;;;;;1.90;52.17;101569.56;4216436;28;20093;-60
2022/03/10 06:28:01;;;;;;;29.88;18.15;;;;;;;1.96;52.77;101575.09;4215424;28;20521;-61
2022/03/10 06:30:07;;;;;;;27.38;18.00;;;;;;;2.01;52.70;101576.28;4216456;28;20044;-60
2022/03/10 06:32:11;;;;;;;25.92;16.85;;;;;;;2.06;52.78;101569.78;4215789;28;20497;-60
2022/03/10 06:34:14;;;;;;;26.45;16.95;;;;;;;2.08;52.01;101582.72;4206189;28;20044;-60
2022/03/10 06:36:16;;;;;;;26.48;15.73;;;;;;;2.12;52.34;101583.81;4209487;28;20044;-60
2022/03/10 06:38:19;;;;;;;28.08;18.13;;;;;;;2.19;52.36;101592.03;4216265;28;20097;-60
2022/03/10 06:40:22;;;;;;;28.08;17.30;;;;;;;2.32;52.24;101595.38;4216312;28;20067;-60
2022/03/10 06:42:24;;;;;;;27.58;17.65;;;;;;;2.36;52.20;101590.56;4197453;28;20070;-60
2022/03/10 06:44:27;;;;;;;28.45;18.13;;;;;;;2.44;52.57;101583.38;4198719;28;20044;-61
2022/03/10 06:46:32;;;;;;;29.15;18.88;;;;;;;2.51;52.86;101587.22;4205234;28;20039;-60
2022/03/10 06:48:35;;;;;;;;;;;;;;;2.44;53.46;101576.56;4216558;28;20055;-60
2022/03/10 06:50:38;;;;;;;31.75;20.13;;;;;;;2.54;53.46;101582.28;4216025;28;19920;-60
2022/03/10 06:52:40;;;;;;;29.55;17.67;;;;;;;2.66;52.85;101582.19;4215216;28;20044;-60
2022/03/10 06:54:43;;;;;;;38.45;19.27;;;;;;;2.81;52.55;101583.16;4216185;28;20056;-60
2022/03/10 06:56:46;;;;;;;32.15;18.23;;;;;;;2.95;52.57;101590.06;4216063;28;20493;-60
2022/03/10 06:58:50;;;;;;;27.25;16.58;;;;;;;2.95;52.05;101597.78;4197980;28;20055;-60
2022/03/10 07:00:53;;;;;;;36.53;17.00;;;;;;;3.04;52.40;101589.78;4215827;28;20042;-60
2022/03/10 07:03:03;;;;;;;28.90;17.50;;;;;;;3.12;52.27;101596.25;4215544;28;20457;-60
2022/03/10 07:05:08;;;;;;;28.38;18.15;;;;;;;3.22;52.50;101595.16;4215880;28;20062;-60
2022/03/10 07:07:11;;;;;;;26.70;17.23;;;;;;;3.25;52.14;101597.91;4215774;28;20440;-60
2022/03/10 07:09:14;;;;;;;32.78;18.05;;;;;;;3.38;51.49;101599.56;4215837;28;20051;-60
2022/03/10 07:11:17;;;;;;;26.02;18.08;;;;;;;3.37;51.23;101594.34;4215889;28;20048;-60
2022/03/10 07:13:20;;;;;;;33.00;18.27;;;;;;;3.44;51.32;101604.19;4195864;28;20049;-61
2022/03/10 07:15:23;;;;;;;24.40;16.40;;;;;;;3.49;50.99;101603.69;4210994;28;20521;-60
2022/03/10 07:17:27;;;;;;;33.80;18.48;;;;;;;3.51;50.67;101602.91;4215717;28;20090;-60
2022/03/10 07:19:32;;;;;;;31.88;17.60;;;;;;;3.67;50.60;101600.47;4214568;28;20400;-60
2022/03/10 07:21:34;;;;;;;26.53;17.47;;;;;;;3.77;49.70;101604.50;4216010;28;20040;-61
2022/03/10 07:23:37;;;;;;;32.58;18.38;;;;;;;3.88;49.04;101612.84;4214685;28;20308;-60
2022/03/10 07:25:42;;;;;;;24.10;16.27;;;;;;;3.81;49.49;101607.34;4215773;28;20094;-60
2022/03/10 07:27:45;;;;;;;25.40;17.25;;;;;;;3.77;49.80;101613.09;4211773;28;20036;-60
2022/03/10 07:29:48;;;;;;;22.08;15.88;;;;;;;3.90;49.61;101611.22;4215279;28;20117;-61
2022/03/10 07:31:51;;;;;;;29.48;17.80;;;;;;;3.83;50.03;101610.88;4211313;28;20060;-61
2022/03/10 07:33:53;;;;;;;28.15;17.13;;;;;;;4.04;49.04;101610.38;4197796;28;20652;-60
2022/03/10 07:36:00;;;;;;;27.00;17.25;;;;;;;3.94;49.98;101614.09;4198856;28;20348;-60
2022/03/10 07:38:03;;;;;;;24.52;16.13;;;;;;;4.14;48.39;101611.81;4198612;28;20036;-60
2022/03/10 07:40:07;;;;;;;29.52;17.00;;;;;;;3.96;49.69;101617.66;4197858;28;20048;-60
2022/03/10 07:42:10;;;;;;;25.02;16.20;;;;;;;3.93;49.66;101612.31;4190497;28;20043;-60
2022/03/10 07:44:13;;;;;;;29.70;18.05;;;;;;;4.04;49.48;101617.22;4214647;28;20036;-60
2022/03/10 07:46:16;;;;;;;36.63;17.38;;;;;;;4.17;48.72;101617.13;4215261;28;20044;-60
2022/03/10 07:48:19;;;;;;;34.53;17.35;;;;;;;4.27;49.09;101609.16;4215213;28;20085;-60
2022/03/10 07:50:23;;;;;;;41.15;17.65;;;;;;;4.19;48.74;101601.00;4215440;28;20402;-59
2022/03/10 07:52:27;;;;;;;28.05;18.17;;;;;;;4.28;49.02;101607.47;4214201;28;20040;-60
2022/03/10 07:54:30;;;;;;;30.50;17.08;;;;;;;4.46;48.77;101600.81;4215205;28;20048;-60
2022/03/10 07:56:33;;;;;;;25.02;16.73;;;;;;;4.41;48.72;101601.34;4199079;28;20551;-60
2022/03/10 07:58:35;;;;;;;31.58;17.25;;;;;;;4.40;48.70;101607.31;4214711;28;20082;-60
2022/03/10 08:00:41;;;;;;;30.85;18.90;;;;;;;4.54;47.93;101591.84;4215223;28;20062;-60
2022/03/10 08:02:44;;;;;;;31.50;18.00;;;;;;;4.52;48.36;101596.00;4195569;28;20086;-60
2022/03/10 08:04:47;;;;;;;26.17;16.98;;;;;;;4.59;47.76;101591.22;4214982;28;20044;-60
2022/03/10 08:06:50;;;;;;;25.58;16.45;;;;;;;4.52;47.70;101596.00;4214885;28;20044;-60
2022/03/10 08:08:54;;;;;;;29.98;18.83;;;;;;;4.47;48.98;101602.59;4214918;28;20093;-60
2022/03/10 08:10:57;;;;;;;29.90;17.92;;;;;;;4.59;48.89;101599.84;4205218;28;20048;-60
2022/03/10 08:13:00;;;;;;;27.73;19.00;;;;;;;4.66;48.72;101594.22;4173516;28;20033;-60
2022/03/10 08:15:03;;;;;;;35.10;18.73;;;;;;;4.75;48.56;101590.41;4195528;28;20178;-60
2022/03/10 08:17:06;;;;;;;33.78;18.33;;;;;;;4.77;48.64;101592.25;4192815;28;20434;-60
2022/03/10 08:19:10;;;;;;;37.50;17.83;;;;;;;4.86;48.19;101590.19;4194698;28;20490;-60
2022/03/10 08:21:12;;;;;;;30.67;19.45;;;;;;;5.03;47.42;101598.84;4192845;28;20039;-60
2022/03/10 08:23:18;;;;;;;27.75;17.75;;;;;;;4.97;47.62;101592.47;4174579;28;20501;-60
2022/03/10 08:25:22;;;;;;;31.70;17.25;;;;;;;5.00;48.11;101593.53;4188129;28;20040;-61
2022/03/10 08:27:25;;;;;;;34.45;20.80;;;;;;;5.18;47.77;101596.25;4195238;28;20055;-60
2022/03/10 08:29:28;;;;;;;37.60;19.25;;;;;;;5.38;46.79;101579.25;4190834;28;20067;-60
2022/03/10 08:31:30;;;;;;;32.35;20.33;;;;;;;5.40;46.71;101582.81;4193842;28;20391;-60
2022/03/10 08:33:33;;;;;;;36.13;20.63;;;;;;;5.32;47.24;101580.63;4196518;28;20040;-60
2022/03/10 08:35:36;;;;;;;33.70;19.05;;;;;;;5.35;47.48;101571.34;4197444;28;20493;-61
2022/03/10 08:37:40;;;;;;;41.45;20.65;;;;;;;5.49;47.01;101566.03;4186340;28;20041;-60
2022/03/10 08:39:46;;;;;;;35.63;20.67;;;;;;;5.59;46.65;101569.19;4181153;28;20097;-60
2022/03/10 08:41:51;;;;;;;47.38;23.65;;;;;;;5.59;46.70;101569.19;4188615;28;20039;-60
2022/03/10 08:43:54;;;;;;;34.50;20.27;;;;;;;5.69;46.87;101567.06;4190406;28;20048;-61
2022/03/10 08:45:57;;;;;;;34.80;19.50;;;;;;;5.70;47.13;101562.00;4194740;28;20095;-60
2022/03/10 08:47:59;;;;;;;38.65;20.45;;;;;;;5.93;46.86;101563.19;4192332;28;20447;-60
2022/03/10 08:50:03;;;;;;;37.90;21.48;;;;;;;5.94;46.55;101562.38;4211932;28;20501;-61
2022/03/10 08:52:06;;;;;;;38.58;20.88;;;;;;;6.05;46.46;101554.31;4192153;28;20048;-61
2022/03/10 08:54:10;;;;;;;31.02;18.17;;;;;;;6.01;46.70;101552.41;4197752;28;20079;-61
2022/03/10 08:56:13;;;;;;;37.13;21.10;;;;;;;6.18;46.42;101551.53;4214073;28;20463;-61
2022/03/10 08:58:18;;;;;;;28.80;19.23;;;;;;;6.28;46.27;101551.19;4204683;28;20052;-60
2022/03/10 09:00:20;;;;;;;30.65;19.27;;;;;;;6.31;45.70;101544.38;4189279;28;20040;-60
2022/03/10 09:02:30;;;;;;;28.75;17.88;;;;;;;6.38;45.70;101543.88;4189692;28;20453;-60
2022/03/10 09:04:33;;;;;;;29.23;18.63;;;;;;;6.59;45.19;101534.59;4174528;28;20531;-61
2022/03/10 09:06:36;;;;;;;27.05;17.00;;;;;;;6.75;44.53;101537.91;4189101;28;20499;-60
2022/03/10 09:08:39;;;;;;;34.40;19.45;;;;;;;6.91;44.16;101539.50;4192595;28;20529;-61
2022/03/10 09:10:42;;;;;;;32.83;18.20;;;;;;;6.86;44.70;101539.28;4195462;28;20486;-60
2022/03/10 09:12:45;;;;;;;33.70;18.95;;;;;;;6.99;44.21;101535.56;4175157;28;20466;-60
2022/03/10 09:14:52;;;;;;;35.75;19.73;;;;;;;6.99;44.56;101531.31;4176529;28;20423;-61
2022/03/10 09:16:54;;;;;;;28.40;16.67;;;;;;;7.06;44.11;101526.41;4194064;28;20037;-61
2022/03/10 09:19:00;;;;;;;27.63;18.70;;;;;;;7.38;43.65;101524.38;4188559;28;20040;-61
2022/03/10 09:21:04;;;;;;;25.20;15.75;;;;;;;7.40;43.73;101533.09;4192030;28;20047;-61
2022/03/10 09:23:07;;;;;;;28.05;16.42;;;;;;;7.44;43.87;101528.09;4175206;28;20056;-61
2022/03/10 09:25:11;;;;;;;31.48;18.58;;;;;;;7.63;43.30;101527.22;4190525;28;20110;-61
2022/03/10 09:27:13;;;;;;;24.13;14.80;;;;;;;7.60;43.01;101521.91;4193153;28;20050;-61
2022/03/10 09:29:16;;;;;;;32.90;17.45;;;;;;;7.77;43.11;101525.22;4193987;28;20536;-61
2022/03/10 09:31:20;;;;;;;27.75;16.85;;;;;;;7.88;42.58;101527.38;4191139;28;20444;-61
2022/03/10 09:33:23;;;;;;;23.42;15.80;;;;;;;8.07;41.91;101518.69;4193230;28;20044;-60